createdAt,value
2019-01-29T00:04:38.141Z,83.70
2019-01-29T00:06:49.051Z,83.80
2019-01-29T00:08:59.832Z,83.76
2019-01-29T00:11:10.657Z,83.53
2019-01-29T00:13:21.476Z,83.65
2019-01-29T00:15:32.281Z,83.57
2019-01-29T00:17:43.085Z,83.72
2019-01-29T00:19:53.945Z,83.79
2019-01-29T00:22:04.846Z,83.97
2019-01-29T00:24:15.659Z,83.99
2019-01-29T00:26:26.473Z,84.08
2019-01-29T00:28:37.260Z,84.06
2019-01-29T00:30:48.175Z,84.00
2019-01-29T00:32:58.987Z,83.90
2019-01-29T00:35:09.903Z,83.80
2019-01-29T00:37:20.700Z,83.54
2019-01-29T00:39:31.498Z,83.46
2019-01-29T00:41:42.318Z,83.44
2019-01-29T00:43:53.127Z,83.43
2019-01-29T00:46:03.942Z,83.33
2019-01-29T00:48:14.775Z,83.36
2019-01-29T00:50:25.584Z,83.08
2019-01-29T00:52:41.908Z,82.98
2019-01-29T00:54:49.187Z,83.08
2019-01-29T00:57:00.032Z,82.84
2019-01-29T00:59:10.917Z,82.67
2019-01-29T01:01:21.850Z,82.59
2019-01-29T01:03:32.770Z,82.63
2019-01-29T01:05:43.683Z,82.70
2019-01-29T01:07:54.475Z,82.83
2019-01-29T01:10:46.952Z,82.89
2019-01-29T01:12:57.789Z,82.82
2019-01-29T01:15:50.239Z,82.42
2019-01-29T01:18:01.036Z,82.39
2019-01-29T01:20:53.537Z,82.73
2019-01-29T01:23:04.424Z,82.69
2019-01-29T01:25:56.891Z,82.70
2019-01-29T01:28:07.700Z,82.68
2019-01-29T01:30:18.706Z,82.50
2019-01-29T01:32:29.523Z,82.40
2019-01-29T01:34:40.313Z,82.49
2019-01-29T01:36:51.223Z,82.39
2019-01-29T01:39:43.689Z,82.44
2019-01-29T01:41:54.481Z,82.46
2019-01-29T01:44:05.413Z,82.37
2019-01-29T01:46:57.906Z,82.18
2019-01-29T01:49:08.697Z,82.12
2019-01-29T01:51:19.507Z,82.45
2019-01-29T01:53:30.325Z,82.57
2019-01-29T01:55:41.129Z,82.60
2019-01-29T01:57:51.928Z,82.64
2019-01-29T02:00:44.365Z,82.72
2019-01-29T02:02:55.297Z,82.43
2019-01-29T02:05:47.767Z,82.50
2019-01-29T02:07:58.561Z,82.48
2019-01-29T02:10:51.033Z,82.75
2019-01-29T02:13:01.945Z,82.76
2019-01-29T02:15:12.973Z,82.80
2019-01-29T02:17:23.775Z,82.78
2019-01-29T02:19:34.632Z,82.68
2019-01-29T02:21:45.430Z,82.72
2019-01-29T02:23:56.251Z,82.59
2019-01-29T02:26:07.058Z,82.57
2019-01-29T02:28:17.965Z,82.43
2019-01-29T02:30:28.789Z,82.51
2019-01-29T02:32:39.580Z,82.54
2019-01-29T02:34:50.404Z,82.20
2019-01-29T02:37:01.185Z,82.40
2019-01-29T02:39:12.104Z,82.49
2019-01-29T02:41:22.904Z,82.34
2019-01-29T02:43:33.689Z,82.18
2019-01-29T02:45:44.510Z,82.10
2019-01-29T02:47:55.327Z,82.12
2019-01-29T02:50:47.827Z,82.23
2019-01-29T02:52:58.625Z,82.09
2019-01-29T02:55:51.088Z,82.12
2019-01-29T02:58:01.980Z,82.10
2019-01-29T03:00:54.437Z,82.26
2019-01-29T03:03:05.225Z,82.23
2019-01-29T03:05:57.694Z,82.21
2019-01-29T03:08:08.580Z,82.21
2019-01-29T03:11:01.046Z,82.20
2019-01-29T03:13:11.838Z,82.28
2019-01-29T03:16:04.309Z,82.17
2019-01-29T03:20:47.476Z,82.19
2019-01-29T03:22:58.308Z,82.00
2019-01-29T03:25:50.745Z,81.87
2019-01-29T03:28:01.553Z,81.94
2019-01-29T03:30:54.002Z,82.08
2019-01-29T03:33:04.808Z,82.20
2019-01-29T03:35:15.710Z,82.14
2019-01-29T03:37:26.491Z,82.09
2019-01-29T03:39:37.305Z,82.05
2019-01-29T03:41:48.126Z,82.06
2019-01-29T03:43:58.942Z,81.83
2019-01-29T03:46:09.857Z,81.64
2019-01-29T03:48:20.682Z,81.62
2019-01-29T03:50:31.480Z,81.50
2019-01-29T03:52:42.304Z,81.65
2019-01-29T03:54:53.126Z,81.56
2019-01-29T03:57:03.927Z,81.65
2019-01-29T03:59:14.739Z,81.69
2019-01-29T04:01:25.662Z,81.74
2019-01-29T04:03:36.497Z,81.78
2019-01-29T04:05:47.390Z,82.01
2019-01-29T04:07:58.285Z,82.08
2019-01-29T04:10:50.747Z,81.85
2019-01-29T04:13:01.542Z,81.68
2019-01-29T04:15:53.991Z,81.60
2019-01-29T04:18:04.896Z,81.71
2019-01-29T04:20:57.390Z,81.71
2019-01-29T04:23:08.184Z,81.76
2019-01-29T04:25:19.018Z,81.66
2019-01-29T04:27:29.932Z,81.84
2019-01-29T04:29:40.727Z,81.99
2019-01-29T04:31:51.552Z,81.77
2019-01-29T04:34:02.453Z,81.84
2019-01-29T04:36:13.259Z,82.09
2019-01-29T04:38:24.085Z,82.15
2019-01-29T04:40:34.922Z,82.24
2019-01-29T04:42:45.926Z,81.99
2019-01-29T04:44:56.739Z,82.05
2019-01-29T04:47:07.619Z,82.28
2019-01-29T04:49:18.432Z,82.24
2019-01-29T04:51:29.309Z,82.29
2019-01-29T04:53:40.165Z,82.28
2019-01-29T04:55:50.989Z,82.33
2019-01-29T04:58:01.812Z,82.36
2019-01-29T05:00:54.246Z,82.26
2019-01-29T05:03:05.155Z,82.30
2019-01-29T05:05:57.623Z,82.39
2019-01-29T05:08:08.440Z,82.29
2019-01-29T05:11:00.892Z,82.13
2019-01-29T05:13:11.706Z,82.18
2019-01-29T05:15:22.596Z,82.02
2019-01-29T05:17:33.420Z,81.99
2019-01-29T05:19:44.337Z,84.42
2019-01-29T05:22:15.050Z,82.32
2019-01-29T05:24:25.868Z,82.32
2019-01-29T05:26:36.705Z,81.79
2019-01-29T05:28:47.499Z,81.27
2019-01-29T05:30:58.295Z,80.92
2019-01-29T05:33:09.102Z,80.55
2019-01-29T05:35:20.092Z,80.73
2019-01-29T05:37:30.892Z,80.76
2019-01-29T05:40:23.508Z,80.83
2019-01-29T05:42:34.334Z,80.63
2019-01-29T05:44:45.149Z,80.73
2019-01-29T05:46:55.969Z,80.68
2019-01-29T05:49:06.994Z,80.85
2019-01-29T05:51:17.812Z,80.38
2019-01-29T05:53:28.623Z,80.31
2019-01-29T05:55:39.545Z,80.46
2019-01-29T05:57:50.392Z,80.59
2019-01-29T06:00:01.193Z,80.72
2019-01-29T06:02:11.991Z,80.57
2019-01-29T06:04:22.920Z,80.73
2019-01-29T06:06:53.610Z,80.44
2019-01-29T06:09:46.078Z,80.44
2019-01-29T06:11:56.862Z,80.51
2019-01-29T06:14:07.803Z,80.43
2019-01-29T06:16:18.615Z,80.43
2019-01-29T06:18:29.425Z,80.57
2019-01-29T06:20:40.302Z,80.58
2019-01-29T06:22:51.194Z,80.39
2019-01-29T06:25:02.124Z,80.56
2019-01-29T06:27:12.995Z,80.46
2019-01-29T06:29:23.808Z,80.57
2019-01-29T06:31:34.652Z,80.53
2019-01-29T06:33:45.446Z,80.48
2019-01-29T06:35:56.294Z,80.57
2019-01-29T06:38:07.165Z,80.68
2019-01-29T06:40:37.873Z,80.71
2019-01-29T06:42:48.698Z,80.56
2019-01-29T06:44:59.561Z,80.57
2019-01-29T06:47:10.342Z,80.77
2019-01-29T06:49:21.145Z,80.76
2019-01-29T06:51:31.952Z,80.72
2019-01-29T06:53:42.741Z,80.52
2019-01-29T06:55:53.583Z,80.52
2019-01-29T06:58:04.497Z,80.56
2019-01-29T07:00:35.166Z,80.64
2019-01-29T07:03:27.644Z,80.59
2019-01-29T07:05:38.463Z,80.31
2019-01-29T07:07:49.365Z,79.79
2019-01-29T07:10:00.267Z,79.79
2019-01-29T07:12:11.020Z,80.09
2019-01-29T07:14:21.824Z,80.28
2019-01-29T07:19:11.550Z,80.09
2019-01-29T07:21:22.388Z,80.21
2019-01-29T07:23:33.206Z,80.27
2019-01-29T07:25:45.178Z,79.84
2019-01-29T07:27:56.370Z,79.81
2019-01-29T07:30:48.821Z,79.74
2019-01-29T07:32:59.627Z,79.54
2019-01-29T07:35:10.542Z,79.36
2019-01-29T07:37:22.097Z,79.23
2019-01-29T07:39:34.201Z,79.10
2019-01-29T07:41:45.036Z,79.15
2019-01-29T07:43:55.835Z,78.86
2019-01-29T07:48:58.966Z,78.64
2019-01-29T07:51:09.851Z,78.82
2019-01-29T07:53:20.769Z,78.93
2019-01-29T07:55:31.787Z,79.04
2019-01-29T07:57:42.670Z,79.01
2019-01-29T07:59:53.499Z,78.65
2019-01-29T08:02:04.416Z,78.64
2019-01-29T08:04:15.276Z,78.87
2019-01-29T08:06:26.067Z,78.62
2019-01-29T08:08:36.932Z,78.47
2019-01-29T08:10:47.728Z,78.38
2019-01-29T08:12:58.628Z,78.36
2019-01-29T08:15:51.114Z,78.03
2019-01-29T08:18:43.588Z,78.11
2019-01-29T08:20:54.458Z,78.04
2019-01-29T08:23:05.296Z,77.99
2019-01-29T08:25:16.327Z,78.09
2019-01-29T08:27:27.135Z,77.95
2019-01-29T08:29:37.947Z,77.99
2019-01-29T08:31:48.919Z,77.92
2019-01-29T08:33:59.722Z,77.62
2019-01-29T08:36:10.546Z,77.42
2019-01-29T08:38:21.342Z,77.03
2019-01-29T08:40:32.191Z,76.62
2019-01-29T08:42:43.190Z,76.26
2019-01-29T08:44:54.008Z,76.03
2019-01-29T08:47:04.824Z,75.74
2019-01-29T08:49:57.290Z,75.45
2019-01-29T08:52:08.117Z,75.34
2019-01-29T08:54:18.923Z,74.98
2019-01-29T08:56:29.733Z,73.66
2019-01-29T08:58:40.536Z,72.57
2019-01-29T09:00:51.390Z,70.75
2019-01-29T09:03:02.403Z,67.95
2019-01-29T09:05:13.306Z,67.85
2019-01-29T09:07:24.229Z,66.04
2019-01-29T09:09:35.019Z,65.83
2019-01-29T09:11:45.845Z,66.04
2019-01-29T09:13:56.641Z,66.62
2019-01-29T09:16:07.575Z,66.57
2019-01-29T09:18:18.360Z,66.52
2019-01-29T09:20:29.168Z,67.34
2019-01-29T09:22:40.076Z,67.32
2019-01-29T09:24:50.868Z,68.46
2019-01-29T09:27:01.682Z,68.69
2019-01-29T09:29:17.593Z,67.67
2019-01-29T09:31:25.215Z,68.87
2019-01-29T09:33:36.031Z,68.59
2019-01-29T09:35:46.843Z,68.97
2019-01-29T09:37:57.643Z,68.57
2019-01-29T09:40:28.304Z,69.06
2019-01-29T09:42:39.307Z,68.77
2019-01-29T09:44:50.117Z,68.87
2019-01-29T09:47:01.017Z,69.02
2019-01-29T09:49:11.831Z,68.86
2019-01-29T09:51:22.629Z,69.27
2019-01-29T09:53:33.516Z,68.92
2019-01-29T09:55:44.305Z,68.85
2019-01-29T09:57:55.140Z,68.68
2019-01-29T10:00:47.593Z,68.73
2019-01-29T10:02:58.417Z,68.46
2019-01-29T10:05:09.335Z,67.58
2019-01-29T10:07:20.117Z,67.19
2019-01-29T10:09:30.937Z,65.92
2019-01-29T10:11:41.747Z,65.65
2019-01-29T10:13:52.549Z,65.86
2019-01-29T10:16:03.642Z,66.24
2019-01-29T10:18:14.704Z,65.33
2019-01-29T10:21:07.203Z,65.32
2019-01-29T10:23:18.015Z,64.68
2019-01-29T10:25:37.107Z,65.68
2019-01-29T10:27:41.651Z,64.97
2019-01-29T10:29:52.479Z,64.46
2019-01-29T10:32:44.930Z,64.89
2019-01-29T10:34:55.789Z,65.67
2019-01-29T10:37:06.531Z,66.27
2019-01-29T10:39:17.470Z,66.13
2019-01-29T10:41:28.286Z,66.23
2019-01-29T10:43:39.084Z,66.81
2019-01-29T10:45:49.903Z,66.69
2019-01-29T10:48:00.699Z,66.46
2019-01-29T10:50:53.152Z,65.88
2019-01-29T10:53:04.068Z,66.38
2019-01-29T10:55:56.523Z,66.31
2019-01-29T10:58:07.425Z,66.20
2019-01-29T11:00:39.024Z,65.95
2019-01-29T11:02:49.924Z,66.33
2019-01-29T11:05:00.835Z,65.69
2019-01-29T11:07:11.673Z,66.75
2019-01-29T11:09:25.525Z,65.84
2019-01-29T11:11:35.309Z,64.86
2019-01-29T11:13:46.119Z,64.54
2019-01-29T11:15:57.051Z,64.09
2019-01-29T11:18:49.501Z,64.47
2019-01-29T11:21:00.484Z,65.34
2019-01-29T11:23:11.266Z,64.85
2019-01-29T11:26:03.725Z,64.68
2019-01-29T11:28:14.538Z,65.12
2019-01-29T11:30:45.207Z,65.39
2019-01-29T11:32:56.230Z,65.26
2019-01-29T11:35:48.678Z,65.89
2019-01-29T11:37:59.600Z,65.67
2019-01-29T11:40:30.886Z,65.43
2019-01-29T11:42:41.776Z,65.98
2019-01-29T11:44:52.672Z,64.17
2019-01-29T11:47:03.665Z,63.88
2019-01-29T11:49:14.493Z,64.58
2019-01-29T11:51:25.391Z,64.38
2019-01-29T11:53:36.207Z,63.93
2019-01-29T11:55:47.009Z,64.87
2019-01-29T11:57:57.929Z,63.87
2019-01-29T12:00:49.598Z,62.79
2019-01-29T12:03:00.539Z,61.51
2019-01-29T12:05:11.463Z,62.52
2019-01-29T12:07:22.268Z,64.02
2019-01-29T12:09:33.087Z,60.38
2019-01-29T12:11:43.903Z,62.43
2019-01-29T12:13:54.687Z,62.53
2019-01-29T12:16:05.619Z,63.76
2019-01-29T12:18:16.425Z,62.64
2019-01-29T12:20:27.363Z,62.52
2019-01-29T12:22:38.359Z,63.32
2019-01-29T12:24:49.189Z,63.28
2019-01-29T12:26:59.992Z,63.34
2019-01-29T12:29:10.823Z,64.14
2019-01-29T12:31:21.637Z,65.35
2019-01-29T12:33:32.569Z,65.50
2019-01-29T12:35:43.403Z,65.41
2019-01-29T12:37:54.204Z,64.91
2019-01-29T12:40:26.792Z,65.21
2019-01-29T12:42:37.681Z,64.89
2019-01-29T12:44:48.486Z,64.29
2019-01-29T12:46:59.324Z,63.92
2019-01-29T12:49:10.205Z,65.56
2019-01-29T12:53:43.655Z,63.18
2019-01-29T12:55:54.483Z,61.81
2019-01-29T12:58:46.919Z,62.46
2019-01-29T13:03:16.922Z,61.38
2019-01-29T13:05:27.737Z,61.28
2019-01-29T13:07:38.582Z,62.10
2019-01-29T13:10:31.019Z,62.97
2019-01-29T13:12:41.935Z,62.91
2019-01-29T13:14:52.734Z,64.33
2019-01-29T13:17:03.648Z,63.40
2019-01-29T13:19:14.457Z,61.67
2019-01-29T13:21:38.934Z,61.08
2019-01-29T13:23:49.757Z,60.36
2019-01-29T13:26:00.543Z,59.66
2019-01-29T13:28:11.512Z,59.91
2019-01-29T13:31:03.972Z,60.13
2019-01-29T13:33:14.989Z,60.28
2019-01-29T13:36:07.421Z,58.97
2019-01-29T13:38:18.251Z,59.56
2019-01-29T13:41:10.738Z,60.79
2019-01-29T13:43:21.563Z,60.23
2019-01-29T13:45:32.494Z,59.59
2019-01-29T13:47:43.424Z,60.96
2019-01-29T13:49:54.291Z,61.03
2019-01-29T13:52:05.045Z,60.00
2019-01-29T13:54:15.903Z,59.30
2019-01-29T13:56:26.709Z,59.69
2019-01-29T13:58:37.547Z,59.15
2019-01-29T14:00:48.389Z,59.60
2019-01-29T14:05:51.659Z,61.29
2019-01-29T14:08:02.573Z,60.11
2019-01-29T14:10:55.051Z,60.08
2019-01-29T14:13:05.954Z,59.33
2019-01-29T14:15:58.438Z,60.31
2019-01-29T14:18:50.876Z,60.53
2019-01-29T14:21:01.740Z,61.70
2019-01-29T14:23:12.667Z,60.10
2019-01-29T14:25:23.579Z,59.93
2019-01-29T14:27:34.386Z,60.56
2019-01-29T14:29:45.197Z,60.44
2019-01-29T14:31:56.052Z,60.46
2019-01-29T14:34:06.837Z,59.93
2019-01-29T14:36:17.679Z,60.66
2019-01-29T14:39:10.122Z,60.32
2019-01-29T14:41:20.973Z,59.25
2019-01-29T14:43:51.645Z,58.87
2019-01-29T14:46:02.548Z,58.36
2019-01-29T14:48:13.358Z,58.80
2019-01-29T14:51:05.838Z,58.87
2019-01-29T14:53:16.668Z,58.27
2019-01-29T14:55:27.591Z,58.81
2019-01-29T14:57:38.401Z,58.52
2019-01-29T14:59:49.234Z,58.50
2019-01-29T15:02:19.941Z,57.52
2019-01-29T15:04:30.729Z,57.52
2019-01-29T15:06:41.578Z,56.66
2019-01-29T15:08:52.366Z,56.72
2019-01-29T15:11:03.172Z,56.12
2019-01-29T15:13:14.083Z,55.26
2019-01-29T15:16:04.635Z,55.14
2019-01-29T15:18:35.342Z,53.87
2019-01-29T15:20:46.166Z,54.16
2019-01-29T15:22:57.096Z,53.89
2019-01-29T15:25:49.549Z,54.34
2019-01-29T15:28:00.459Z,54.58
2019-01-29T15:30:31.248Z,54.99
2019-01-29T15:32:42.194Z,55.77
2019-01-29T15:34:52.999Z,56.96
2019-01-29T15:37:45.463Z,57.32
2019-01-29T15:39:56.401Z,58.07
2019-01-29T15:42:07.306Z,59.41
2019-01-29T15:44:18.136Z,59.57
2019-01-29T15:46:28.931Z,60.09
2019-01-29T15:48:39.764Z,59.39
2019-01-29T15:50:50.630Z,59.41
2019-01-29T15:53:01.664Z,60.11
2019-01-29T15:55:54.187Z,60.79
2019-01-29T15:58:46.619Z,60.67
2019-01-29T16:00:57.424Z,60.93
2019-01-29T16:03:08.227Z,61.18
2019-01-29T16:06:00.697Z,61.27
2019-01-29T16:08:53.167Z,61.18
2019-01-29T16:11:03.965Z,61.77
2019-01-29T16:13:14.774Z,62.55
2019-01-29T16:16:07.247Z,62.57
2019-01-29T16:18:18.067Z,62.61
2019-01-29T16:20:28.990Z,62.50
2019-01-29T16:22:39.793Z,62.68
2019-01-29T16:24:50.606Z,63.56
2019-01-29T16:27:06.669Z,64.01
2019-01-29T16:29:14.234Z,64.16
2019-01-29T16:31:25.278Z,64.26
2019-01-29T16:33:36.081Z,64.56
2019-01-29T16:35:46.893Z,65.17
2019-01-29T16:37:57.921Z,65.92
2019-01-29T16:40:50.384Z,66.89
2019-01-29T16:43:01.299Z,67.25
2019-01-29T16:45:53.763Z,67.77
2019-01-29T16:48:46.238Z,68.02
2019-01-29T16:50:57.040Z,68.71
2019-01-29T16:53:08.275Z,69.28
2019-01-29T16:56:00.782Z,69.37
2019-01-29T16:58:11.585Z,69.94
2019-01-29T17:01:04.059Z,70.52
2019-01-29T17:03:14.868Z,71.00
2019-01-29T17:06:07.333Z,71.52
2019-01-29T17:08:18.231Z,72.08
2019-01-29T17:11:10.699Z,72.21
2019-01-29T17:13:21.513Z,72.59
2019-01-29T17:16:14.410Z,73.50
2019-01-29T17:18:25.320Z,73.51
2019-01-29T17:20:56.750Z,73.17
2019-01-29T17:23:50.433Z,73.43
2019-01-29T17:26:01.232Z,73.13
2019-01-29T17:28:12.058Z,73.15
2019-01-29T17:31:04.557Z,72.93
2019-01-29T17:36:16.139Z,72.80
2019-01-29T17:38:27.009Z,72.72
2019-01-29T17:40:37.874Z,72.75
2019-01-29T17:42:48.742Z,72.80
2019-01-29T17:44:59.559Z,73.42
2019-01-29T17:47:10.393Z,73.76
2019-01-29T17:49:21.205Z,73.72
2019-01-29T17:51:32.025Z,73.95
2019-01-29T17:53:42.866Z,73.99
2019-01-29T17:55:53.789Z,74.15
2019-01-29T17:58:46.273Z,74.24
2019-01-29T18:03:29.504Z,74.18
2019-01-29T18:05:40.538Z,74.24
2019-01-29T18:07:51.376Z,74.22
2019-01-29T18:10:43.883Z,74.29
2019-01-29T18:12:54.887Z,74.39
2019-01-29T18:15:45.455Z,74.77
2019-01-29T18:17:56.383Z,74.78
2019-01-29T18:20:07.453Z,75.14
2019-01-29T18:22:18.290Z,75.07
2019-01-29T18:24:29.099Z,74.96
2019-01-29T18:26:39.954Z,75.01
2019-01-29T18:28:50.773Z,75.44
2019-01-29T18:31:01.598Z,75.47
2019-01-29T18:33:12.452Z,75.39
2019-01-29T18:35:23.338Z,75.20
2019-01-29T18:37:34.158Z,75.10
2019-01-29T18:39:47.519Z,75.04
2019-01-29T18:42:11.322Z,74.90
2019-01-29T18:44:35.281Z,74.87
2019-01-29T18:46:46.175Z,74.85
2019-01-29T18:48:57.134Z,75.14
2019-01-29T18:53:47.232Z,75.15
2019-01-29T18:55:58.063Z,75.22
2019-01-29T18:58:12.065Z,75.38
2019-01-29T19:00:41.632Z,75.50
2019-01-29T19:02:52.565Z,75.41
2019-01-29T19:05:45.095Z,75.40
2019-01-29T19:07:56.133Z,75.38
2019-01-29T19:10:48.695Z,75.51
2019-01-29T19:12:59.639Z,75.59
2019-01-29T19:15:52.181Z,75.41
2019-01-29T19:18:03.201Z,75.38
2019-01-29T19:20:55.748Z,75.19
2019-01-29T19:23:06.699Z,75.19
2019-01-29T19:25:17.716Z,75.29
2019-01-29T19:27:28.520Z,75.26
2019-01-29T19:29:39.339Z,75.24
2019-01-29T19:31:50.269Z,75.13
2019-01-29T19:34:01.210Z,75.08
2019-01-29T19:36:12.059Z,75.04
2019-01-29T19:38:22.880Z,75.07
2019-01-29T19:45:50.745Z,74.81
2019-01-29T19:48:43.257Z,74.84
2019-01-29T19:55:28.108Z,75.03
2019-01-29T19:57:39.137Z,75.26
2019-01-29T19:59:49.928Z,75.48
2019-01-29T20:02:00.842Z,75.56
2019-01-29T20:04:11.740Z,75.23
2019-01-29T20:06:22.548Z,75.22
2019-01-29T20:10:51.011Z,74.68
2019-01-29T20:13:01.889Z,74.04
2019-01-29T20:18:19.521Z,73.06
2019-01-29T20:21:11.983Z,72.78
2019-01-29T20:23:22.992Z,72.78
2019-01-29T20:25:33.799Z,72.80
2019-01-29T20:27:44.710Z,72.72
2019-01-29T20:29:55.586Z,72.81
2019-01-29T20:32:06.391Z,72.82
2019-01-29T20:34:17.392Z,72.72
2019-01-29T20:36:28.191Z,72.50
2019-01-29T20:38:39.097Z,72.44
2019-01-29T20:40:49.984Z,72.64
2019-01-29T20:43:00.785Z,72.89
2019-01-29T20:45:53.276Z,72.97
2019-01-29T20:48:04.298Z,72.97
2019-01-29T20:50:35.552Z,73.17
2019-01-29T20:52:46.468Z,73.33
2019-01-29T20:55:17.248Z,73.16
2019-01-29T20:57:28.040Z,73.16
2019-01-29T20:59:38.899Z,73.45
2019-01-29T21:01:49.750Z,73.40
2019-01-29T21:04:00.742Z,73.25
2019-01-29T21:06:11.539Z,72.90
2019-01-29T21:08:22.372Z,72.70
2019-01-29T21:10:33.390Z,72.59
2019-01-29T21:12:44.211Z,72.38
2019-01-29T21:14:55.100Z,72.36
2019-01-29T21:17:05.956Z,72.06
2019-01-29T21:19:16.747Z,72.17
2019-01-29T21:21:27.666Z,71.96
2019-01-29T21:23:38.528Z,71.54
2019-01-29T21:25:49.409Z,71.51
2019-01-29T21:28:00.218Z,71.50
2019-01-29T21:30:32.125Z,71.74
2019-01-29T21:32:42.956Z,71.43
2019-01-29T21:34:53.777Z,71.59
2019-01-29T21:37:04.702Z,71.57
2019-01-29T21:39:15.568Z,71.56
2019-01-29T21:41:41.084Z,70.95
2019-01-29T21:43:51.898Z,70.95
2019-01-29T21:46:44.371Z,70.51
2019-01-29T21:48:55.288Z,70.13
2019-01-29T21:51:06.130Z,70.38
2019-01-29T21:53:16.935Z,70.24
2019-01-29T21:55:27.839Z,69.82
2019-01-29T21:57:38.787Z,69.80
2019-01-29T21:59:49.656Z,69.87
2019-01-29T22:02:00.404Z,69.85
2019-01-29T22:04:11.225Z,69.21
2019-01-29T22:06:22.061Z,69.51
2019-01-29T22:08:32.919Z,69.24
2019-01-29T22:10:43.730Z,68.93
2019-01-29T22:12:54.584Z,69.08
2019-01-29T22:15:25.266Z,68.90
2019-01-29T22:17:36.097Z,68.61
2019-01-29T22:19:46.909Z,68.68
2019-01-29T22:21:57.723Z,68.56
2019-01-29T22:24:08.545Z,68.12
2019-01-29T22:26:19.347Z,68.26
2019-01-29T22:28:30.158Z,68.62
2019-01-29T22:30:41.217Z,68.29
2019-01-29T22:32:52.021Z,68.07
2019-01-29T22:35:44.485Z,67.84
2019-01-29T22:37:55.429Z,67.80
2019-01-29T22:40:47.949Z,68.26
2019-01-29T22:43:40.432Z,67.89
2019-01-29T22:45:51.277Z,67.74
2019-01-29T22:50:40.915Z,68.00
2019-01-29T22:52:51.722Z,68.13
2019-01-29T22:55:44.183Z,68.00
2019-01-29T22:57:54.985Z,67.94
2019-01-29T23:00:50.235Z,67.64
2019-01-29T23:03:42.684Z,67.71
2019-01-29T23:06:35.143Z,67.55
2019-01-29T23:08:46.008Z,67.50
2019-01-29T23:10:57.375Z,67.11
2019-01-29T23:13:09.536Z,66.76
2019-01-29T23:16:02.024Z,66.59
2019-01-29T23:18:12.999Z,66.50
2019-01-29T23:21:05.474Z,66.43
2019-01-29T23:23:16.267Z,66.49
2019-01-29T23:25:27.086Z,66.28
2019-01-29T23:27:37.883Z,66.22
2019-01-29T23:29:48.697Z,66.22
2019-01-29T23:31:59.501Z,66.39
2019-01-29T23:34:10.312Z,66.36
2019-01-29T23:36:21.162Z,66.17
2019-01-29T23:38:31.938Z,66.46
2019-01-29T23:40:42.777Z,65.90
2019-01-29T23:42:53.585Z,65.80
2019-01-29T23:45:46.116Z,65.85
2019-01-29T23:48:16.784Z,65.63
2019-01-29T23:51:09.454Z,65.59
2019-01-29T23:53:20.259Z,65.72
2019-01-29T23:55:31.285Z,65.72
2019-01-29T23:57:42.108Z,65.42
2019-01-29T23:59:54.019Z,65.21
